Hutchinson County Airport - Borger, Texas, United States - FAA: BGD - ICAO: KBGD - IATA: BGD

 
  Longest Runway: 6,300 feet   Approach Types:    Customs Landing Rights Airport: No   Port of Entry: No

Local Forecast

Overnight (9/28): Clear, with a low around 54. West southwest wind around 5 mph.

Wednesday (9/28): Sunny, with a high near 87. West wind 5 to 10 mph becoming east northeast in the afternoon.

Wednesday Night (9/28): Clear, with a low around 53. East wind 5 to 10 mph.

Thursday (9/29): Sunny, with a high near 75. East wind around 5 mph.

Thursday Night (9/29): Mostly clear, with a low around 52. South southeast wind 5 to 10 mph.

Friday (9/30): Mostly sunny, with a high near 78. South wind 5 to 15 mph.

Friday Night (9/30): Partly cloudy, with a low around 57. South southeast wind 10 to 15 mph.



Current Weather (METAR)

2016/09/28 07:51 KBGD 280751Z AUTO 24005KT 10SM CLR 16/05 A3010 RMK AO2 SLP156 T01610050

BORGER HUTCHINSON CO AIRPORT , TX, United States (KBGD) 35-42N 101-24W 927M Sep 28, 2016 - 03:51 AM EDT / 2016.09.28 0751 UTC Wind: from the WSW (240 degrees) at 6 MPH (5 KT):0 Visibility: 10 mile(s):0 Sky conditions: clear Temperature: 61.0 F (16.1 C) Dew Point: 41.0 F (5.0 C) Relative Humidity: 47% Pressure (altimeter): 30.1 in. Hg (1019 hPa) ob: KBGD 280751Z AUTO 24005KT 10SM CLR 16/05 A3010 RMK AO2 SLP156 T01610050 cycle: 8

Terminal Forecast (TAF)